createdAt,value
2018-09-28T00:01:30.039Z,4.03
2018-09-28T00:03:58.255Z,4.45
2018-09-28T00:06:26.592Z,4.00
2018-09-28T00:08:54.873Z,3.92
2018-09-28T00:11:23.052Z,4.00
2018-09-28T00:13:51.273Z,4.20
2018-09-28T00:16:19.481Z,4.42
2018-09-28T00:18:47.725Z,5.10
2018-09-28T00:21:15.952Z,4.53
2018-09-28T00:23:44.063Z,4.15
2018-09-28T00:26:12.240Z,4.08
2018-09-28T00:28:40.436Z,4.62
2018-09-28T00:31:08.770Z,3.95
2018-09-28T00:33:36.956Z,4.25
2018-09-28T00:36:11.829Z,4.20
2018-09-28T00:38:40.037Z,4.50
2018-09-28T00:41:08.271Z,4.37
2018-09-28T00:43:41.892Z,4.10
2018-09-28T00:46:21.556Z,4.83
2018-09-28T00:48:49.715Z,4.22
2018-09-28T00:51:17.949Z,4.30
2018-09-28T00:53:46.146Z,5.35
2018-09-28T00:56:14.322Z,4.30
2018-09-28T00:58:42.601Z,4.70
2018-09-28T01:01:10.897Z,4.03
2018-09-28T01:03:39.085Z,4.12
2018-09-28T01:06:07.405Z,4.70
2018-09-28T01:08:35.698Z,4.20
2018-09-28T01:11:03.931Z,5.08
2018-09-28T01:13:32.248Z,5.30
2018-09-28T01:16:00.692Z,4.80
2018-09-28T01:18:28.876Z,4.22
2018-09-28T01:20:57.204Z,4.75
2018-09-28T01:23:25.567Z,4.30
2018-09-28T01:25:53.808Z,3.52
2018-09-28T01:28:21.995Z,5.15
2018-09-28T01:30:50.190Z,4.90
2018-09-28T01:33:18.357Z,4.37
2018-09-28T01:35:46.540Z,4.60
2018-09-28T01:38:14.737Z,4.90
2018-09-28T01:40:42.967Z,4.42
2018-09-28T01:43:11.202Z,4.92
2018-09-28T01:45:39.413Z,4.33
2018-09-28T01:48:07.699Z,4.83
2018-09-28T01:50:35.875Z,4.60
2018-09-28T01:53:04.105Z,4.67
2018-09-28T01:55:32.248Z,4.62
2018-09-28T01:58:00.416Z,4.45
2018-09-28T02:00:28.584Z,4.42
2018-09-28T02:02:56.873Z,5.20
2018-09-28T02:05:25.089Z,5.28
2018-09-28T02:07:53.305Z,4.58
2018-09-28T02:10:21.484Z,5.10
2018-09-28T02:12:49.672Z,5.05
2018-09-28T02:15:17.892Z,5.10
2018-09-28T02:17:46.238Z,4.80
2018-09-28T02:20:14.428Z,4.97
2018-09-28T02:22:42.642Z,5.42
2018-09-28T02:25:10.958Z,4.42
2018-09-28T02:27:39.132Z,4.05
2018-09-28T02:30:07.639Z,4.70
2018-09-28T02:32:35.909Z,4.72
2018-09-28T02:35:04.275Z,4.33
2018-09-28T02:37:32.417Z,4.83
2018-09-28T02:40:00.610Z,4.83
2018-09-28T02:42:28.788Z,5.10
2018-09-28T02:44:56.987Z,5.25
2018-09-28T02:47:25.139Z,5.22
2018-09-28T02:49:53.367Z,4.67
2018-09-28T02:52:21.513Z,5.20
2018-09-28T02:54:49.833Z,6.25
2018-09-28T02:57:18.056Z,5.20
2018-09-28T02:59:46.291Z,4.80
2018-09-28T03:02:14.499Z,5.22
2018-09-28T03:04:42.691Z,5.05
2018-09-28T03:07:10.936Z,4.85
2018-09-28T03:09:39.107Z,4.70
2018-09-28T03:12:07.263Z,4.80
2018-09-28T03:14:35.409Z,4.90
2018-09-28T03:17:03.596Z,4.92
2018-09-28T03:19:31.813Z,5.22
2018-09-28T03:22:00.176Z,4.30
2018-09-28T03:24:28.440Z,4.95
2018-09-28T03:26:56.578Z,5.42
2018-09-28T03:29:24.776Z,5.15
2018-09-28T03:31:52.910Z,4.62
2018-09-28T03:34:22.624Z,5.20
2018-09-28T03:36:50.872Z,4.65
2018-09-28T03:39:19.057Z,5.03
2018-09-28T03:41:47.277Z,4.95
2018-09-28T03:44:15.452Z,5.15
2018-09-28T03:46:43.707Z,5.08
2018-09-28T03:49:11.956Z,4.67
2018-09-28T03:51:40.186Z,5.55
2018-09-28T03:54:08.389Z,5.50
2018-09-28T03:56:36.593Z,5.55
2018-09-28T03:59:04.781Z,4.92
2018-09-28T04:01:32.944Z,5.40
2018-09-28T04:04:01.142Z,4.95
2018-09-28T04:06:29.384Z,5.35
2018-09-28T04:08:57.648Z,5.15
2018-09-28T04:11:25.791Z,6.75
2018-09-28T04:13:53.976Z,5.05
2018-09-28T04:16:22.207Z,5.10
2018-09-28T04:18:50.421Z,5.28
2018-09-28T04:21:18.656Z,5.75
2018-09-28T04:23:46.900Z,5.62
2018-09-28T04:26:15.107Z,4.90
2018-09-28T04:28:43.339Z,5.65
2018-09-28T04:31:11.577Z,5.67
2018-09-28T04:33:39.740Z,6.37
2018-09-28T04:36:07.916Z,5.08
2018-09-28T04:38:36.233Z,5.40
2018-09-28T04:41:04.477Z,5.50
2018-09-28T04:43:32.665Z,5.85
2018-09-28T04:46:00.905Z,5.60
2018-09-28T04:48:29.134Z,5.90
2018-09-28T04:50:57.252Z,6.45
2018-09-28T04:53:25.466Z,5.97
2018-09-28T04:55:54.484Z,5.42
2018-09-28T04:58:22.700Z,5.72
2018-09-28T05:00:51.266Z,5.10
2018-09-28T05:03:19.656Z,5.90
2018-09-28T05:05:51.006Z,5.95
2018-09-28T05:08:19.351Z,5.20
2018-09-28T05:10:47.673Z,7.10
2018-09-28T05:13:15.880Z,5.03
2018-09-28T05:15:59.410Z,5.45
2018-09-28T05:18:27.898Z,6.15
2018-09-28T05:20:56.309Z,5.47
2018-09-28T05:23:24.637Z,6.30
2018-09-28T05:26:05.495Z,7.12
2018-09-28T05:28:40.037Z,5.58
2018-09-28T05:31:08.584Z,5.70
2018-09-28T05:33:45.934Z,6.05
2018-09-28T05:36:14.389Z,6.40
2018-09-28T05:38:42.633Z,6.08
2018-09-28T05:41:10.916Z,5.75
2018-09-28T05:43:39.189Z,5.30
2018-09-28T05:46:07.475Z,5.90
2018-09-28T05:48:35.736Z,5.67
2018-09-28T05:51:04.131Z,6.20
2018-09-28T05:53:32.357Z,5.95
2018-09-28T05:56:00.563Z,6.17
2018-09-28T05:58:34.414Z,7.03
2018-09-28T06:01:08.160Z,5.72
2018-09-28T06:03:40.908Z,7.47
2018-09-28T06:06:09.158Z,6.20
2018-09-28T06:08:37.304Z,6.10
2018-09-28T06:11:05.681Z,6.47
2018-09-28T06:13:34.016Z,6.22
2018-09-28T06:16:02.535Z,6.75
2018-09-28T06:18:30.738Z,6.70
2018-09-28T06:20:58.943Z,6.95
2018-09-28T06:23:27.127Z,6.62
2018-09-28T06:25:55.390Z,6.30
2018-09-28T06:28:23.496Z,6.78
2018-09-28T06:30:51.652Z,7.65
2018-09-28T06:33:19.813Z,7.83
2018-09-28T06:35:48.095Z,8.93
2018-09-28T06:38:16.231Z,7.30
2018-09-28T06:40:44.432Z,8.45
2018-09-28T06:43:12.615Z,8.15
2018-09-28T06:45:40.818Z,8.50
2018-09-28T06:48:09.072Z,8.58
2018-09-28T06:50:37.236Z,7.85
2018-09-28T06:53:05.440Z,8.38
2018-09-28T06:55:33.591Z,8.70
2018-09-28T06:58:01.810Z,9.20
2018-09-28T07:00:29.976Z,10.03
2018-09-28T07:02:58.228Z,9.95
2018-09-28T07:05:26.609Z,10.25
2018-09-28T07:07:54.923Z,12.05
2018-09-28T07:10:23.076Z,9.50
2018-09-28T07:12:51.198Z,10.30
2018-09-28T07:15:19.420Z,9.73
2018-09-28T07:17:47.617Z,10.48
2018-09-28T07:20:15.875Z,11.60
2018-09-28T07:22:44.059Z,9.63
2018-09-28T07:25:12.274Z,10.63
2018-09-28T07:27:40.468Z,11.25
2018-09-28T07:30:08.744Z,9.88
2018-09-28T07:32:37.030Z,11.18
2018-09-28T07:35:05.256Z,10.20
2018-09-28T07:37:33.717Z,10.82
2018-09-28T07:40:01.964Z,10.58
2018-09-28T07:42:30.231Z,11.95
2018-09-28T07:44:58.495Z,11.43
2018-09-28T07:47:26.671Z,11.05
2018-09-28T07:49:54.799Z,11.97
2018-09-28T07:52:22.961Z,12.33
2018-09-28T07:54:51.155Z,11.73
2018-09-28T07:57:19.376Z,11.00
2018-09-28T07:59:47.543Z,10.80
2018-09-28T08:02:15.828Z,11.30
2018-09-28T08:04:43.983Z,12.33
2018-09-28T08:07:12.219Z,11.45
2018-09-28T08:09:40.495Z,11.20
2018-09-28T08:12:08.651Z,12.07
2018-09-28T08:14:36.844Z,11.75
2018-09-28T08:17:05.088Z,10.38
2018-09-28T08:19:33.471Z,11.22
2018-09-28T08:22:01.754Z,11.40
2018-09-28T08:24:29.999Z,11.10
2018-09-28T08:26:58.135Z,9.90
2018-09-28T08:29:26.266Z,9.80
2018-09-28T08:31:54.448Z,9.95
2018-09-28T08:34:22.613Z,9.15
2018-09-28T08:36:50.854Z,9.45
2018-09-28T08:39:18.952Z,9.35
2018-09-28T08:41:47.226Z,11.73
2018-09-28T08:44:15.402Z,8.95
2018-09-28T08:46:43.636Z,9.73
2018-09-28T08:49:11.876Z,9.40
2018-09-28T08:51:40.036Z,8.80
2018-09-28T08:54:08.249Z,8.70
2018-09-28T08:56:36.485Z,9.00
2018-09-28T08:59:04.771Z,9.40
2018-09-28T09:01:33.000Z,8.57
2018-09-28T09:04:01.374Z,9.30
2018-09-28T09:06:29.544Z,9.17
2018-09-28T09:08:57.743Z,9.50
2018-09-28T09:11:25.926Z,9.67
2018-09-28T09:13:54.113Z,9.97
2018-09-28T09:16:22.391Z,9.80
2018-09-28T09:18:50.628Z,10.30
2018-09-28T09:21:18.940Z,10.30
2018-09-28T09:23:47.255Z,12.23
2018-09-28T09:26:15.465Z,9.57
2018-09-28T09:28:43.743Z,9.60
2018-09-28T09:31:12.577Z,9.40
2018-09-28T09:33:41.728Z,9.67
2018-09-28T09:36:09.991Z,6.00
2018-09-28T09:38:38.136Z,8.43
2018-09-28T09:41:06.587Z,8.20
2018-09-28T09:44:07.977Z,9.67
2018-09-28T09:46:36.346Z,8.33
2018-09-28T09:49:04.628Z,8.90
2018-09-28T09:51:32.897Z,8.80
2018-09-28T09:54:01.099Z,9.00
2018-09-28T09:56:29.321Z,9.10
2018-09-28T09:58:57.542Z,10.40
2018-09-28T10:01:31.390Z,8.90
2018-09-28T10:04:04.259Z,8.47
2018-09-28T10:06:32.425Z,9.07
2018-09-28T10:09:00.631Z,8.27
2018-09-28T10:11:28.816Z,9.63
2018-09-28T10:13:57.062Z,8.10
2018-09-28T10:16:25.241Z,8.60
2018-09-28T10:18:53.485Z,8.40
2018-09-28T10:21:21.674Z,7.80
2018-09-28T10:23:49.896Z,8.20
2018-09-28T10:26:18.048Z,7.90
2018-09-28T10:28:46.309Z,7.97
2018-09-28T10:31:14.588Z,7.03
2018-09-28T10:33:42.863Z,6.90
2018-09-28T10:36:11.013Z,6.80
2018-09-28T10:38:39.329Z,6.80
2018-09-28T10:41:07.485Z,6.70
2018-09-28T10:43:35.668Z,6.00
2018-09-28T10:46:03.868Z,7.07
2018-09-28T10:48:32.079Z,7.10
2018-09-28T10:51:00.270Z,6.23
2018-09-28T10:53:28.428Z,6.37
2018-09-28T10:55:56.740Z,7.60
2018-09-28T10:58:25.055Z,6.43
2018-09-28T11:00:53.195Z,6.27
2018-09-28T11:03:21.425Z,6.00
2018-09-28T11:05:49.664Z,6.07
2018-09-28T11:08:17.848Z,6.57
2018-09-28T11:10:46.122Z,5.90
2018-09-28T11:13:14.303Z,5.70
2018-09-28T11:15:42.593Z,5.90
2018-09-28T11:18:10.757Z,6.70
2018-09-28T11:20:38.963Z,5.57
2018-09-28T11:23:07.090Z,5.40
2018-09-28T11:25:36.184Z,5.90
2018-09-28T11:28:04.441Z,5.87
2018-09-28T11:30:32.634Z,6.27
2018-09-28T11:33:00.857Z,6.27
2018-09-28T11:35:29.100Z,5.87
2018-09-28T11:37:57.333Z,5.93
2018-09-28T11:40:25.519Z,5.23
2018-09-28T11:42:53.711Z,4.13
2018-09-28T11:45:22.007Z,4.77
2018-09-28T11:47:50.360Z,5.77
2018-09-28T11:50:18.537Z,6.50
2018-09-28T11:52:47.688Z,5.30
2018-09-28T11:55:16.719Z,4.90
2018-09-28T11:57:44.991Z,5.10
2018-09-28T12:00:13.435Z,5.17
2018-09-28T12:02:41.726Z,5.43
2018-09-28T12:05:10.016Z,5.03
2018-09-28T12:07:38.254Z,5.37
2018-09-28T12:10:06.633Z,4.73
2018-09-28T12:12:34.970Z,5.10
2018-09-28T12:15:03.272Z,5.17
2018-09-28T12:17:31.533Z,4.43
2018-09-28T12:19:59.820Z,5.70
2018-09-28T12:22:28.036Z,4.73
2018-09-28T12:24:56.296Z,4.73
2018-09-28T12:27:24.700Z,4.20
2018-09-28T12:29:52.767Z,5.10
2018-09-28T12:32:20.964Z,4.30
2018-09-28T12:34:49.253Z,4.30
2018-09-28T12:37:17.506Z,4.90
2018-09-28T12:39:45.812Z,4.53
2018-09-28T12:42:14.148Z,5.63
2018-09-28T12:44:42.405Z,5.10
2018-09-28T12:47:10.649Z,5.53
2018-09-28T12:49:38.928Z,5.37
2018-09-28T12:52:07.251Z,5.60
2018-09-28T12:54:35.722Z,3.93
2018-09-28T12:57:03.932Z,5.40
2018-09-28T12:59:32.272Z,4.97
2018-09-28T13:02:00.548Z,5.23
2018-09-28T13:04:28.761Z,5.20
2018-09-28T13:06:57.044Z,5.23
2018-09-28T13:09:25.284Z,5.47
2018-09-28T13:11:53.459Z,4.83
2018-09-28T13:14:21.866Z,5.10
2018-09-28T13:16:50.089Z,5.00
2018-09-28T13:19:18.283Z,6.07
2018-09-28T13:21:46.558Z,7.33
2018-09-28T13:24:14.809Z,6.47
2018-09-28T13:26:49.802Z,7.83
2018-09-28T13:29:18.005Z,6.27
2018-09-28T13:31:46.209Z,7.00
2018-09-28T13:34:14.433Z,7.90
2018-09-28T13:36:42.688Z,24.80
2018-09-28T13:39:10.962Z,7.90
2018-09-28T13:41:39.186Z,7.93
2018-09-28T13:44:07.374Z,42.10
2018-09-28T13:46:35.604Z,15.20
2018-09-28T13:49:03.888Z,17.53
2018-09-28T13:51:32.241Z,28.43
2018-09-28T13:54:00.519Z,21.93
2018-09-28T13:56:28.781Z,8.47
2018-09-28T13:58:57.031Z,12.93
2018-09-28T14:01:25.282Z,6.47
2018-09-28T14:03:53.506Z,7.87
2018-09-28T14:06:21.886Z,7.20
2018-09-28T14:08:50.161Z,8.80
2018-09-28T14:11:18.420Z,6.53
2018-09-28T14:13:46.599Z,10.77
2018-09-28T14:16:14.795Z,6.87
2018-09-28T14:18:43.059Z,5.83
2018-09-28T14:21:11.276Z,7.60
2018-09-28T14:23:39.436Z,8.53
2018-09-28T14:26:07.665Z,9.50
2018-09-28T14:28:38.735Z,7.47
2018-09-28T14:31:07.273Z,6.77
2018-09-28T14:33:35.623Z,6.43
2018-09-28T14:36:03.877Z,5.20
2018-09-28T14:38:32.170Z,6.30
2018-09-28T14:41:00.397Z,18.17
2018-09-28T14:43:28.664Z,11.17
2018-09-28T14:45:56.967Z,10.90
2018-09-28T14:48:25.303Z,12.07
2018-09-28T14:50:53.424Z,7.83
2018-09-28T14:53:21.717Z,7.00
2018-09-28T14:55:49.982Z,7.40
2018-09-28T14:58:18.242Z,8.43
2018-09-28T15:00:46.552Z,8.47
2018-09-28T15:03:14.724Z,9.17
2018-09-28T15:05:43.081Z,7.10
2018-09-28T15:08:11.383Z,8.03
2018-09-28T15:10:39.697Z,9.10
2018-09-28T15:13:07.953Z,7.73
2018-09-28T15:15:36.149Z,9.10
2018-09-28T15:18:04.432Z,8.43
2018-09-28T15:20:32.719Z,11.40
2018-09-28T15:23:01.014Z,6.53
2018-09-28T15:25:29.232Z,8.10
2018-09-28T15:27:57.439Z,7.30
2018-09-28T15:30:25.713Z,8.53
2018-09-28T15:32:53.954Z,7.20
2018-09-28T15:35:22.431Z,9.30
2018-09-28T15:37:50.591Z,9.07
2018-09-28T15:40:19.856Z,10.50
2018-09-28T15:42:48.265Z,7.70
2018-09-28T15:45:16.439Z,6.77
2018-09-28T15:47:45.555Z,6.23
2018-09-28T15:50:13.801Z,9.90
2018-09-28T15:52:42.084Z,9.90
2018-09-28T15:55:10.295Z,9.53
2018-09-28T15:57:38.487Z,8.13
2018-09-28T16:00:08.267Z,9.83
2018-09-28T16:02:36.452Z,10.33
2018-09-28T16:05:04.916Z,10.23
2018-09-28T16:07:33.808Z,10.20
2018-09-28T16:10:02.105Z,11.90
2018-09-28T16:12:30.379Z,10.37
2018-09-28T16:14:58.648Z,10.10
2018-09-28T16:17:26.891Z,10.50
2018-09-28T16:19:55.101Z,10.90
2018-09-28T16:22:23.364Z,10.23
2018-09-28T16:24:51.703Z,9.40
2018-09-28T16:27:20.005Z,11.07
2018-09-28T16:29:48.246Z,10.30
2018-09-28T16:32:16.541Z,11.20
2018-09-28T16:34:44.783Z,11.07
2018-09-28T16:37:12.968Z,12.17
2018-09-28T16:39:41.206Z,9.60
2018-09-28T16:42:09.407Z,10.20
2018-09-28T16:44:37.631Z,10.13
2018-09-28T16:47:05.957Z,9.73
2018-09-28T16:49:34.203Z,13.63
2018-09-28T16:52:02.417Z,9.63
2018-09-28T16:54:30.680Z,10.70
2018-09-28T16:56:59.609Z,9.70
2018-09-28T16:59:27.835Z,11.37
2018-09-28T17:01:56.682Z,10.23
2018-09-28T17:04:24.922Z,10.70
2018-09-28T17:06:53.325Z,10.27
2018-09-28T17:09:22.111Z,10.70
2018-09-28T17:11:50.393Z,11.13
2018-09-28T17:14:18.708Z,10.17
2018-09-28T17:16:47.013Z,11.40
2018-09-28T17:19:15.244Z,11.37
2018-09-28T17:21:43.545Z,10.90
2018-09-28T17:24:11.912Z,11.23
2018-09-28T17:26:40.245Z,12.23
2018-09-28T17:29:08.631Z,11.07
2018-09-28T17:31:36.813Z,10.87
2018-09-28T17:34:05.054Z,10.30
2018-09-28T17:36:33.458Z,10.03
2018-09-28T17:39:01.682Z,9.87
2018-09-28T17:41:29.968Z,9.20
2018-09-28T17:43:58.169Z,9.63
2018-09-28T17:46:26.381Z,9.37
2018-09-28T17:48:54.685Z,9.80
2018-09-28T17:51:22.992Z,8.20
2018-09-28T17:53:51.180Z,9.00
2018-09-28T17:56:19.525Z,8.53
2018-09-28T17:58:47.826Z,6.00
2018-09-28T18:01:16.248Z,8.10
2018-09-28T18:03:45.234Z,7.87
2018-09-28T18:06:13.629Z,7.27
2018-09-28T18:08:41.996Z,7.73
2018-09-28T18:11:10.451Z,6.70
2018-09-28T18:13:39.317Z,6.40
2018-09-28T18:16:08.286Z,7.00
2018-09-28T18:18:36.909Z,6.10
2018-09-28T18:21:08.355Z,6.93
2018-09-28T18:23:37.112Z,5.90
2018-09-28T18:26:07.189Z,6.67
2018-09-28T18:28:35.630Z,3.87
2018-09-28T18:31:03.944Z,5.77
2018-09-28T18:33:32.364Z,6.40
2018-09-28T18:36:00.576Z,5.00
2018-09-28T18:38:28.903Z,5.37
2018-09-28T18:40:57.149Z,5.53
2018-09-28T18:43:25.407Z,5.53
2018-09-28T18:45:53.880Z,5.03
2018-09-28T18:48:22.167Z,5.20
2018-09-28T18:50:50.616Z,3.80
2018-09-28T18:53:19.047Z,4.97
2018-09-28T18:55:47.451Z,5.10
2018-09-28T18:58:15.765Z,4.37
2018-09-28T19:00:44.446Z,5.70
2018-09-28T19:03:12.824Z,5.20
2018-09-28T19:05:41.110Z,4.00
2018-09-28T19:08:09.412Z,5.30
2018-09-28T19:10:39.415Z,5.80
2018-09-28T19:13:07.920Z,3.70
2018-09-28T19:15:36.265Z,3.47
2018-09-28T19:18:04.639Z,5.70
2018-09-28T19:20:36.017Z,5.33
2018-09-28T19:23:05.227Z,3.83
2018-09-28T19:25:35.166Z,3.87
2018-09-28T19:28:03.947Z,4.35
2018-09-28T19:30:32.329Z,6.50
2018-09-28T19:33:00.740Z,6.75
2018-09-28T19:35:31.564Z,6.30
2018-09-28T19:38:00.054Z,5.55
2018-09-28T19:40:28.422Z,7.28
2018-09-28T19:42:56.664Z,7.85
2018-09-28T19:45:24.887Z,7.92
2018-09-28T19:47:53.274Z,5.95
2018-09-28T19:50:21.517Z,5.95
2018-09-28T19:52:49.822Z,4.70
2018-09-28T19:55:18.773Z,6.20
2018-09-28T19:57:47.371Z,4.87
2018-09-28T20:00:15.640Z,5.22
2018-09-28T20:02:43.895Z,6.58
2018-09-28T20:05:12.144Z,7.25
2018-09-28T20:07:40.511Z,5.67
2018-09-28T20:10:08.850Z,8.30
2018-09-28T20:12:37.045Z,6.95
2018-09-28T20:15:05.400Z,5.78
2018-09-28T20:17:33.899Z,5.03
2018-09-28T20:20:02.803Z,5.35
2018-09-28T20:22:31.160Z,4.92
2018-09-28T20:24:59.547Z,7.80
2018-09-28T20:27:28.016Z,8.35
2018-09-28T20:29:56.361Z,5.92
2018-09-28T20:32:24.677Z,7.70
2018-09-28T20:34:53.009Z,5.20
2018-09-28T20:37:21.328Z,7.22
2018-09-28T20:39:49.506Z,5.40
2018-09-28T20:42:17.820Z,10.15
2018-09-28T20:44:46.025Z,4.60
2018-09-28T20:47:14.357Z,7.00
2018-09-28T20:49:42.653Z,8.20
2018-09-28T20:52:10.898Z,7.72
2018-09-28T20:54:39.246Z,9.75
2018-09-28T20:57:07.545Z,9.33
2018-09-28T20:59:35.830Z,7.58
2018-09-28T21:02:04.170Z,9.33
2018-09-28T21:04:32.403Z,8.80
2018-09-28T21:07:00.626Z,10.78
2018-09-28T21:09:28.890Z,10.55
2018-09-28T21:11:57.084Z,10.60
2018-09-28T21:14:25.299Z,12.00
2018-09-28T21:16:53.464Z,9.53
2018-09-28T21:19:21.676Z,11.45
2018-09-28T21:21:49.930Z,9.30
2018-09-28T21:24:18.138Z,11.10
2018-09-28T21:26:46.429Z,9.00
2018-09-28T21:29:14.690Z,7.15
2018-09-28T21:31:42.949Z,9.40
2018-09-28T21:34:11.210Z,9.30
2018-09-28T21:36:39.517Z,9.28
2018-09-28T21:39:09.269Z,10.25
2018-09-28T21:41:37.673Z,11.18
2018-09-28T21:44:06.628Z,7.33
2018-09-28T21:46:34.932Z,7.92
2018-09-28T21:49:03.250Z,10.32
2018-09-28T21:51:31.601Z,8.65
2018-09-28T21:53:59.962Z,9.60
2018-09-28T21:56:28.209Z,8.43
2018-09-28T21:58:56.816Z,6.67
2018-09-28T22:01:26.281Z,8.15
2018-09-28T22:03:54.718Z,7.87
2018-09-28T22:06:23.004Z,7.70
2018-09-28T22:08:51.254Z,7.05
2018-09-28T22:11:19.460Z,5.80
2018-09-28T22:13:47.698Z,7.28
2018-09-28T22:16:15.922Z,7.62
2018-09-28T22:18:44.216Z,7.87
2018-09-28T22:21:12.430Z,8.13
2018-09-28T22:23:40.713Z,5.30
2018-09-28T22:26:09.012Z,5.72
2018-09-28T22:28:37.238Z,6.70
2018-09-28T22:31:05.914Z,6.25
2018-09-28T22:33:34.200Z,6.17
2018-09-28T22:36:02.531Z,5.50
2018-09-28T22:38:30.870Z,3.98
2018-09-28T22:40:59.061Z,5.55
2018-09-28T22:43:27.313Z,4.58
2018-09-28T22:45:55.574Z,4.62
2018-09-28T22:48:23.893Z,5.05
2018-09-28T22:50:52.167Z,3.05
2018-09-28T22:53:21.185Z,5.58
2018-09-28T22:55:49.436Z,3.40
2018-09-28T22:58:17.628Z,3.55
2018-09-28T23:00:45.885Z,4.10
2018-09-28T23:03:14.152Z,3.62
2018-09-28T23:05:42.428Z,2.98
2018-09-28T23:08:10.609Z,4.55
2018-09-28T23:10:38.906Z,3.10
2018-09-28T23:13:07.082Z,2.25
2018-09-28T23:15:35.326Z,2.20
2018-09-28T23:18:03.628Z,2.65
2018-09-28T23:20:31.859Z,1.82
2018-09-28T23:23:00.115Z,2.85
2018-09-28T23:25:28.358Z,2.70
2018-09-28T23:27:56.540Z,2.55
2018-09-28T23:30:24.765Z,2.77
2018-09-28T23:32:52.929Z,2.67
2018-09-28T23:35:21.132Z,1.72
2018-09-28T23:37:49.309Z,2.30
2018-09-28T23:40:17.560Z,1.98
2018-09-28T23:42:45.772Z,3.40
2018-09-28T23:45:13.984Z,1.82
2018-09-28T23:47:42.213Z,1.85
2018-09-28T23:50:10.348Z,2.12
2018-09-28T23:52:38.582Z,1.60
2018-09-28T23:55:06.880Z,2.12
2018-09-28T23:57:35.216Z,2.25
